createdAt,value
2022-10-21T00:01:12.244Z,36.70
2022-10-21T00:03:40.973Z,39.65
2022-10-21T00:06:10.462Z,33.55
2022-10-21T00:08:40.246Z,29.73
2022-10-21T00:11:10.581Z,22.88
2022-10-21T00:13:40.748Z,32.95
2022-10-21T00:16:12.171Z,32.35
2022-10-21T00:18:43.260Z,20.23
2022-10-21T00:21:15.393Z,27.10
2022-10-21T00:23:44.327Z,33.08
2022-10-21T00:26:13.768Z,24.92
2022-10-21T00:28:43.873Z,27.85
2022-10-21T00:31:14.769Z,33.35
2022-10-21T00:33:43.619Z,32.97
2022-10-21T00:36:15.149Z,30.70
2022-10-21T00:38:46.168Z,27.65
2022-10-21T00:41:16.575Z,30.95
2022-10-21T00:43:58.376Z,38.45
2022-10-21T00:46:36.603Z,49.75
2022-10-21T00:49:13.227Z,50.53
2022-10-21T00:51:42.191Z,44.53
2022-10-21T00:54:11.528Z,40.15
2022-10-21T00:56:42.743Z,38.35
2022-10-21T00:59:12.987Z,44.63
2022-10-21T01:01:41.630Z,33.50
2022-10-21T01:04:10.419Z,35.17
2022-10-21T01:06:40.574Z,31.92
2022-10-21T01:09:09.530Z,23.83
2022-10-21T01:11:43.333Z,33.55
2022-10-21T01:14:47.108Z,29.15
2022-10-21T01:17:44.030Z,26.35
2022-10-21T01:20:59.168Z,36.60
2022-10-21T01:24:37.280Z,31.48
2022-10-21T01:27:39.419Z,30.30
2022-10-21T01:30:42.932Z,36.47
2022-10-21T01:33:39.855Z,42.75
2022-10-21T01:36:22.940Z,38.53
2022-10-21T01:39:06.529Z,32.65
2022-10-21T01:41:42.541Z,41.35
2022-10-21T01:44:22.076Z,44.42
2022-10-21T01:46:58.793Z,33.42
2022-10-21T01:49:33.207Z,37.25
2022-10-21T01:52:03.387Z,32.33
2022-10-21T01:54:36.280Z,31.50
2022-10-21T01:57:07.493Z,41.50
2022-10-21T01:59:37.413Z,35.25
2022-10-21T02:02:09.956Z,37.45
2022-10-21T02:04:42.377Z,44.40
2022-10-21T02:07:11.442Z,27.13
2022-10-21T02:09:39.952Z,38.17
2022-10-21T02:12:10.471Z,55.83
2022-10-21T02:14:43.443Z,39.88
2022-10-21T02:17:17.332Z,37.80
2022-10-21T02:19:46.652Z,31.30
2022-10-21T02:22:21.379Z,44.42
2022-10-21T02:24:54.752Z,36.65
2022-10-21T02:27:24.180Z,38.08
2022-10-21T02:29:58.716Z,37.15
2022-10-21T02:32:37.912Z,32.50
2022-10-21T02:35:23.077Z,41.03
2022-10-21T02:38:00.855Z,39.40
2022-10-21T02:40:35.403Z,41.47
2022-10-21T02:43:10.313Z,38.28
2022-10-21T02:45:40.529Z,39.85
2022-10-21T02:48:10.129Z,38.50
2022-10-21T02:50:38.389Z,37.88
2022-10-21T02:53:07.612Z,28.85
2022-10-21T02:55:36.093Z,36.72
2022-10-21T02:58:04.792Z,37.90
2022-10-21T03:00:33.472Z,43.95
2022-10-21T03:03:02.068Z,42.92
2022-10-21T03:08:00.089Z,41.67
2022-10-21T03:10:28.665Z,39.67
2022-10-21T03:12:56.864Z,26.20
2022-10-21T03:15:25.470Z,33.83
2022-10-21T03:17:53.956Z,40.88
2022-10-21T03:20:22.632Z,29.17
2022-10-21T03:22:53.113Z,28.05
2022-10-21T03:25:21.651Z,35.28
2022-10-21T03:27:51.276Z,31.50
2022-10-21T03:30:20.028Z,36.60
2022-10-21T03:32:48.503Z,30.23
2022-10-21T03:35:17.115Z,40.60
2022-10-21T03:37:45.660Z,40.28
2022-10-21T03:40:15.496Z,34.65
2022-10-21T03:42:44.003Z,45.35
2022-10-21T03:45:12.768Z,50.13
2022-10-21T03:47:41.261Z,47.42
2022-10-21T03:50:13.960Z,39.58
2022-10-21T03:52:45.067Z,42.30
2022-10-21T03:55:14.857Z,38.15
2022-10-21T03:57:43.651Z,32.35
2022-10-21T04:00:14.404Z,35.10
2022-10-21T04:02:43.417Z,32.33
2022-10-21T04:05:12.291Z,41.50
2022-10-21T04:07:41.187Z,37.67
2022-10-21T04:10:11.605Z,42.00
2022-10-21T04:12:41.480Z,35.13
2022-10-21T04:15:13.637Z,36.63
2022-10-21T04:17:42.564Z,28.17
2022-10-21T04:20:12.201Z,29.17
2022-10-21T04:22:41.168Z,32.17
2022-10-21T04:25:10.467Z,26.02
2022-10-21T04:27:40.378Z,29.02
2022-10-21T04:30:10.404Z,28.15
2022-10-21T04:32:39.191Z,32.72
2022-10-21T04:35:08.175Z,34.88
2022-10-21T04:37:40.001Z,26.45
2022-10-21T04:40:10.477Z,26.83
2022-10-21T04:42:40.354Z,28.38
2022-10-21T04:45:10.111Z,31.48
2022-10-21T04:47:38.879Z,26.60
2022-10-21T04:50:08.034Z,34.10
2022-10-21T04:52:36.592Z,19.48
2022-10-21T04:55:06.801Z,22.80
2022-10-21T04:57:35.141Z,23.65
2022-10-21T05:00:06.732Z,22.73
2022-10-21T05:02:36.615Z,22.08
2022-10-21T05:05:05.850Z,20.92
2022-10-21T05:07:34.375Z,23.67
2022-10-21T05:10:02.589Z,20.50
2022-10-21T05:12:31.229Z,22.05
2022-10-21T05:15:00.518Z,17.60
2022-10-21T05:17:30.142Z,29.75
2022-10-21T05:19:58.629Z,37.30
2022-10-21T05:22:27.155Z,24.92
2022-10-21T05:24:55.364Z,26.33
2022-10-21T05:27:23.574Z,24.48
2022-10-21T05:29:52.102Z,25.55
2022-10-21T05:32:20.612Z,18.85
2022-10-21T05:34:50.232Z,24.98
2022-10-21T05:37:19.022Z,30.77
2022-10-21T05:39:47.372Z,24.40
2022-10-21T05:42:15.687Z,26.23
2022-10-21T05:44:44.173Z,25.35
2022-10-21T05:47:12.711Z,24.77
2022-10-21T05:49:41.209Z,24.88
2022-10-21T05:52:10.787Z,31.77
2022-10-21T05:54:39.034Z,28.38
2022-10-21T05:57:07.536Z,19.50
2022-10-21T05:59:35.735Z,31.77
2022-10-21T06:02:04.230Z,31.35
2022-10-21T06:04:37.792Z,41.17
2022-10-21T06:07:07.696Z,30.55
2022-10-21T06:09:37.688Z,35.05
2022-10-21T06:12:07.447Z,30.40
2022-10-21T06:14:36.582Z,26.58
2022-10-21T06:17:05.632Z,32.75
2022-10-21T06:19:34.076Z,41.72
2022-10-21T06:22:02.792Z,34.88
2022-10-21T06:24:31.327Z,35.00
2022-10-21T06:27:00.940Z,29.13
2022-10-21T06:29:29.571Z,29.83
2022-10-21T06:31:58.059Z,31.13
2022-10-21T06:34:26.676Z,19.52
2022-10-21T06:36:55.177Z,27.90
2022-10-21T06:39:23.672Z,29.23
2022-10-21T06:41:52.201Z,19.00
2022-10-21T06:44:41.717Z,30.05
2022-10-21T06:47:10.246Z,26.48
2022-10-21T06:49:38.720Z,28.95
2022-10-21T06:52:07.284Z,19.60
2022-10-21T06:54:35.820Z,21.08
2022-10-21T06:57:05.314Z,23.15
2022-10-21T06:59:33.916Z,26.25
2022-10-21T07:02:03.480Z,26.52
2022-10-21T07:04:31.995Z,32.17
2022-10-21T07:07:00.911Z,34.72
2022-10-21T07:09:30.812Z,30.27
2022-10-21T07:12:01.314Z,31.45
2022-10-21T07:14:29.934Z,33.90
2022-10-21T07:16:58.464Z,41.33
2022-10-21T07:19:28.513Z,43.83
2022-10-21T07:21:56.713Z,39.08
2022-10-21T07:24:25.309Z,37.42
2022-10-21T07:26:53.908Z,39.05
2022-10-21T07:29:22.489Z,44.42
2022-10-21T07:31:51.073Z,34.17
2022-10-21T07:34:19.543Z,30.90
2022-10-21T07:36:52.730Z,25.48
2022-10-21T07:39:25.472Z,34.15
2022-10-21T07:41:56.549Z,36.15
2022-10-21T07:44:26.762Z,29.65
2022-10-21T07:46:55.611Z,36.10
2022-10-21T07:49:24.962Z,32.25
2022-10-21T07:51:54.519Z,30.90
2022-10-21T07:54:23.600Z,33.58
2022-10-21T07:56:53.093Z,33.70
2022-10-21T07:59:23.474Z,35.75
2022-10-21T08:01:53.104Z,29.15
2022-10-21T08:04:24.894Z,45.92
2022-10-21T08:06:54.532Z,34.55
2022-10-21T08:09:23.483Z,41.65
2022-10-21T08:11:52.258Z,28.52
2022-10-21T08:14:20.772Z,44.58
2022-10-21T08:16:53.750Z,43.67
2022-10-21T08:19:29.417Z,42.95
2022-10-21T08:22:00.811Z,52.65
2022-10-21T08:24:29.442Z,43.15
2022-10-21T08:26:58.008Z,38.83
2022-10-21T08:29:26.932Z,41.10
2022-10-21T08:31:55.408Z,32.38
2022-10-21T08:34:24.575Z,32.55
2022-10-21T08:36:52.765Z,40.65
2022-10-21T08:39:24.909Z,34.45
2022-10-21T08:42:18.434Z,27.55
2022-10-21T08:44:54.965Z,38.92
2022-10-21T08:47:33.159Z,46.92
2022-10-21T08:50:06.433Z,41.35
2022-10-21T08:52:44.628Z,34.17
2022-10-21T08:55:24.053Z,40.30
2022-10-21T08:57:54.642Z,39.15
2022-10-21T09:00:25.914Z,43.08
2022-10-21T09:03:09.007Z,32.60
2022-10-21T09:06:14.982Z,44.90
2022-10-21T09:11:44.070Z,42.75
2022-10-21T09:14:58.714Z,41.95
2022-10-21T09:17:57.445Z,28.80
2022-10-21T09:20:45.773Z,38.70
2022-10-21T09:23:44.737Z,37.42
2022-10-21T09:26:34.504Z,33.70
2022-10-21T09:29:16.687Z,41.63
2022-10-21T09:31:47.791Z,40.17
2022-10-21T09:36:54.717Z,39.47
2022-10-21T09:39:33.705Z,31.13
2022-10-21T09:42:07.349Z,30.13
2022-10-21T09:44:47.128Z,44.78
2022-10-21T09:47:21.795Z,29.73
2022-10-21T09:50:06.909Z,24.98
2022-10-21T09:52:38.905Z,10.50
2022-10-21T09:55:14.468Z,14.98
2022-10-21T09:57:52.523Z,5.32
2022-10-21T10:00:21.123Z,9.50
2022-10-21T10:02:50.326Z,5.05
2022-10-21T10:05:42.167Z,7.80
2022-10-21T10:08:40.142Z,4.78
2022-10-21T10:11:18.835Z,7.00
2022-10-21T10:13:50.937Z,6.38
2022-10-21T10:16:27.545Z,4.00
2022-10-21T10:19:17.510Z,6.45
2022-10-21T10:21:48.180Z,5.20
2022-10-21T10:24:20.109Z,4.93
2022-10-21T10:26:49.788Z,5.97
2022-10-21T10:29:27.725Z,3.65
2022-10-21T10:31:59.430Z,5.63
2022-10-21T10:34:34.561Z,5.03
2022-10-21T10:37:09.072Z,6.35
2022-10-21T10:39:40.840Z,3.30
2022-10-21T10:42:09.500Z,4.13
2022-10-21T10:44:44.524Z,7.25
2022-10-21T10:47:21.800Z,4.15
2022-10-21T10:49:51.639Z,4.00
2022-10-21T10:52:24.169Z,5.75
2022-10-21T10:55:19.352Z,13.30
2022-10-21T10:58:06.090Z,5.78
2022-10-21T11:00:45.840Z,7.53
2022-10-21T11:03:26.074Z,13.20
2022-10-21T11:06:02.348Z,12.88
2022-10-21T11:08:37.223Z,20.58
2022-10-21T11:11:11.827Z,8.70
2022-10-21T11:13:42.305Z,5.43
2022-10-21T11:16:59.013Z,10.32
2022-10-21T11:19:40.558Z,5.70
2022-10-21T11:22:16.340Z,5.82
2022-10-21T11:25:12.409Z,5.22
2022-10-21T11:28:04.106Z,12.38
2022-10-21T11:30:47.827Z,6.80
2022-10-21T11:33:29.108Z,6.28
2022-10-21T11:36:08.010Z,5.93
2022-10-21T11:39:31.734Z,7.72
2022-10-21T11:42:10.040Z,7.25
2022-10-21T11:44:53.916Z,11.13
2022-10-21T11:47:29.600Z,6.93
2022-10-21T11:50:13.004Z,7.82
2022-10-21T11:52:57.688Z,15.43
2022-10-21T11:55:39.769Z,9.52
2022-10-21T11:58:33.744Z,7.32
2022-10-21T12:01:25.412Z,11.25
2022-10-21T12:04:22.459Z,3.88
2022-10-21T12:07:11.018Z,2.55
2022-10-21T12:09:46.324Z,2.70
2022-10-21T12:12:18.668Z,3.20
2022-10-21T12:14:53.767Z,3.15
2022-10-21T12:17:23.855Z,3.83
2022-10-21T12:19:59.068Z,5.70
2022-10-21T12:22:33.069Z,2.05
2022-10-21T12:25:20.829Z,6.93
2022-10-21T12:27:55.930Z,2.85
2022-10-21T12:30:33.783Z,2.22
2022-10-21T12:33:16.890Z,4.38
2022-10-21T12:35:53.175Z,3.38
2022-10-21T12:38:43.785Z,5.40
2022-10-21T12:41:34.218Z,5.55
2022-10-21T12:44:24.864Z,6.13
2022-10-21T12:46:56.778Z,11.93
2022-10-21T12:49:36.419Z,10.73
2022-10-21T12:52:13.862Z,2.35
2022-10-21T12:54:56.880Z,2.00
2022-10-21T12:57:29.689Z,3.00
2022-10-21T13:00:51.054Z,6.95
2022-10-21T13:03:22.820Z,2.88
2022-10-21T13:06:07.039Z,1.63
2022-10-21T13:08:51.653Z,6.50
2022-10-21T13:11:40.470Z,5.10
2022-10-21T13:14:35.345Z,1.65
2022-10-21T13:17:48.932Z,1.33
2022-10-21T13:20:47.033Z,1.75
2022-10-21T13:23:37.863Z,4.50
2022-10-21T13:26:19.979Z,1.02
2022-10-21T13:29:16.550Z,1.67
2022-10-21T13:31:45.372Z,0.80
2022-10-21T13:34:29.417Z,3.58
2022-10-21T13:36:58.657Z,1.45
2022-10-21T13:39:34.501Z,2.10
2022-10-21T13:42:06.529Z,1.98
2022-10-21T13:44:39.744Z,1.40
2022-10-21T13:47:30.627Z,3.50
2022-10-21T13:50:11.661Z,7.45
2022-10-21T13:52:43.238Z,3.92
2022-10-21T13:55:20.605Z,1.23
2022-10-21T13:57:51.357Z,4.72
2022-10-21T14:00:25.173Z,4.55
2022-10-21T14:03:00.631Z,1.73
2022-10-21T14:05:37.793Z,6.35
2022-10-21T14:08:18.274Z,2.85
2022-10-21T14:10:48.443Z,4.97
2022-10-21T14:13:20.583Z,4.30
2022-10-21T14:15:50.811Z,6.72
2022-10-21T14:18:34.925Z,3.28
2022-10-21T14:21:07.423Z,5.60
2022-10-21T14:23:36.425Z,4.95
2022-10-21T14:26:09.705Z,10.07
2022-10-21T14:28:38.937Z,9.52
2022-10-21T14:31:12.411Z,2.58
2022-10-21T14:33:43.345Z,7.15
2022-10-21T14:36:20.325Z,4.07
2022-10-21T14:39:00.402Z,11.38
2022-10-21T14:41:35.504Z,14.82
2022-10-21T14:44:14.486Z,8.43
2022-10-21T14:46:47.275Z,6.32
2022-10-21T14:49:26.489Z,9.30
2022-10-21T14:52:01.106Z,8.93
2022-10-21T14:54:41.764Z,13.38
2022-10-21T14:57:33.199Z,7.43
2022-10-21T15:00:03.370Z,14.48
2022-10-21T15:02:37.156Z,7.63
2022-10-21T15:05:26.656Z,3.60
2022-10-21T15:08:17.014Z,8.70
2022-10-21T15:10:45.450Z,9.00
2022-10-21T15:13:18.280Z,4.15
2022-10-21T15:15:53.223Z,5.40
2022-10-21T15:18:29.245Z,5.05
2022-10-21T15:21:00.204Z,8.70
2022-10-21T15:23:32.967Z,5.82
2022-10-21T15:26:06.003Z,9.32
2022-10-21T15:28:36.499Z,7.22
2022-10-21T15:31:09.241Z,4.68
2022-10-21T15:33:38.864Z,7.75
2022-10-21T15:36:09.819Z,4.18
2022-10-21T15:38:44.501Z,9.43
2022-10-21T15:41:16.218Z,4.13
2022-10-21T15:43:58.267Z,6.35
2022-10-21T15:46:27.173Z,8.30
2022-10-21T15:48:57.985Z,6.85
2022-10-21T15:51:26.384Z,4.20
2022-10-21T15:53:54.582Z,4.53
2022-10-21T15:56:24.277Z,9.57
2022-10-21T15:58:52.460Z,7.43
2022-10-21T16:01:21.141Z,15.23
2022-10-21T16:03:49.435Z,4.10
2022-10-21T16:06:21.715Z,3.53
2022-10-21T16:08:51.667Z,4.38
2022-10-21T16:11:34.642Z,2.08
2022-10-21T16:14:10.198Z,9.50
2022-10-21T16:16:41.723Z,5.80
2022-10-21T16:19:10.901Z,4.47
2022-10-21T16:21:41.085Z,6.38
2022-10-21T16:24:09.559Z,7.05
2022-10-21T16:26:42.413Z,4.78
2022-10-21T16:29:13.848Z,4.38
2022-10-21T16:31:42.084Z,6.72
2022-10-21T16:34:10.299Z,8.93
2022-10-21T16:36:40.243Z,6.15
2022-10-21T16:39:14.786Z,5.20
2022-10-21T16:41:43.156Z,4.35
2022-10-21T16:44:11.724Z,8.35
2022-10-21T16:46:42.682Z,4.50
2022-10-21T16:49:15.320Z,1.83
2022-10-21T16:51:46.876Z,5.93
2022-10-21T16:54:15.744Z,2.75
2022-10-21T16:56:44.284Z,7.43
2022-10-21T16:59:12.868Z,6.10
2022-10-21T17:01:41.588Z,8.65
2022-10-21T17:04:14.210Z,10.65
2022-10-21T17:06:44.263Z,5.35
2022-10-21T17:09:12.490Z,4.82
2022-10-21T17:11:42.499Z,8.98
2022-10-21T17:14:16.102Z,3.33
2022-10-21T17:16:45.239Z,8.05
2022-10-21T17:19:13.943Z,12.45
2022-10-21T17:21:44.055Z,5.60
2022-10-21T17:24:17.595Z,7.05
2022-10-21T17:26:46.361Z,3.10
2022-10-21T17:29:15.536Z,4.57
2022-10-21T17:31:44.713Z,3.70
2022-10-21T17:34:26.840Z,9.63
2022-10-21T17:36:57.035Z,4.10
2022-10-21T17:39:25.727Z,7.05
2022-10-21T17:41:54.018Z,2.65
2022-10-21T17:44:22.860Z,7.00
2022-10-21T17:46:54.350Z,4.68
2022-10-21T17:49:23.255Z,4.28
2022-10-21T17:51:52.109Z,6.35
2022-10-21T17:54:26.100Z,5.22
2022-10-21T17:56:57.820Z,3.22
2022-10-21T17:59:26.704Z,11.20
2022-10-21T18:01:54.931Z,6.32
2022-10-21T18:04:23.157Z,6.20
2022-10-21T18:06:51.351Z,2.65
2022-10-21T18:09:20.984Z,3.20
2022-10-21T18:11:49.665Z,6.18
2022-10-21T18:14:18.196Z,11.23
2022-10-21T18:16:46.781Z,7.93
2022-10-21T18:19:15.324Z,12.40
2022-10-21T18:21:43.924Z,6.15
2022-10-21T18:24:12.799Z,2.30
2022-10-21T18:26:42.594Z,2.88
2022-10-21T18:29:10.808Z,10.95
2022-10-21T18:31:39.975Z,2.80
2022-10-21T18:34:09.331Z,7.60
2022-10-21T18:36:37.984Z,5.20
2022-10-21T18:39:06.940Z,5.18
2022-10-21T18:41:36.160Z,6.05
2022-10-21T18:44:08.950Z,5.50
2022-10-21T18:46:39.884Z,5.30
2022-10-21T18:49:11.716Z,4.97
2022-10-21T18:51:40.240Z,7.65
2022-10-21T18:54:08.768Z,6.45
2022-10-21T18:56:37.038Z,8.82
2022-10-21T18:59:07.018Z,10.68
2022-10-21T19:01:35.335Z,7.32
2022-10-21T19:04:03.917Z,3.55
2022-10-21T19:06:39.621Z,7.60
2022-10-21T19:09:12.954Z,3.72
2022-10-21T19:11:42.293Z,7.32
2022-10-21T19:14:14.351Z,11.98
2022-10-21T19:16:43.696Z,5.93
2022-10-21T19:19:13.037Z,1.45
2022-10-21T19:21:41.968Z,4.82
2022-10-21T19:24:11.646Z,11.35
2022-10-21T19:26:42.155Z,14.27
2022-10-21T19:29:16.168Z,2.05
2022-10-21T19:34:20.992Z,4.32
2022-10-21T19:36:49.376Z,6.57
2022-10-21T19:39:17.973Z,2.92
2022-10-21T19:41:46.340Z,4.45
2022-10-21T19:44:16.053Z,7.38
2022-10-21T19:46:44.620Z,16.58
2022-10-21T19:49:15.328Z,8.75
2022-10-21T19:51:43.896Z,3.50
2022-10-21T19:54:13.882Z,2.85
2022-10-21T19:56:42.615Z,4.15
2022-10-21T19:59:11.847Z,9.10
2022-10-21T20:01:41.548Z,4.35
2022-10-21T20:04:09.930Z,8.60
2022-10-21T20:06:39.388Z,4.00
2022-10-21T20:09:10.485Z,6.75
2022-10-21T20:11:40.444Z,3.50
2022-10-21T20:14:09.213Z,6.35
2022-10-21T20:16:42.315Z,2.92
2022-10-21T20:19:13.314Z,9.68
2022-10-21T20:21:42.935Z,4.05
2022-10-21T20:24:14.220Z,3.20
2022-10-21T20:26:44.391Z,4.32
2022-10-21T20:29:13.218Z,4.60
2022-10-21T20:31:42.781Z,3.95
2022-10-21T20:34:13.583Z,5.38
2022-10-21T20:36:42.148Z,9.98
2022-10-21T20:39:11.316Z,10.65
2022-10-21T20:41:40.174Z,5.40
2022-10-21T20:44:12.225Z,7.97
2022-10-21T20:46:42.172Z,4.88
2022-10-21T20:49:11.236Z,3.95
2022-10-21T20:51:43.064Z,10.63
2022-10-21T20:54:15.072Z,5.90
2022-10-21T20:56:44.484Z,8.40
2022-10-21T20:59:15.839Z,8.77
2022-10-21T21:01:47.652Z,7.15
2022-10-21T21:04:20.554Z,4.53
2022-10-21T21:06:50.763Z,3.35
2022-10-21T21:09:43.701Z,7.88
2022-10-21T21:12:10.110Z,2.28
2022-10-21T21:14:38.608Z,4.38
2022-10-21T21:17:08.288Z,2.35
2022-10-21T21:19:36.551Z,10.40
2022-10-21T21:22:05.076Z,3.08
2022-10-21T21:24:33.546Z,3.50
2022-10-21T21:27:02.056Z,3.97
2022-10-21T21:29:30.550Z,3.53
2022-10-21T21:31:59.307Z,9.48
2022-10-21T21:34:29.103Z,2.28
2022-10-21T21:36:57.614Z,5.97
2022-10-21T21:39:26.226Z,13.18
2022-10-21T21:41:54.979Z,4.97
2022-10-21T21:44:23.444Z,1.92
2022-10-21T21:46:51.916Z,5.53
2022-10-21T21:49:20.435Z,4.35
2022-10-21T21:51:49.956Z,3.15
2022-10-21T21:54:18.350Z,5.07
2022-10-21T21:56:46.942Z,4.68
2022-10-21T21:59:15.487Z,9.00
2022-10-21T22:01:44.120Z,7.38
2022-10-21T22:04:12.658Z,5.22
2022-10-21T22:06:40.928Z,10.30
2022-10-21T22:09:11.956Z,13.07
2022-10-21T22:11:40.508Z,11.75
2022-10-21T22:14:09.054Z,6.15
2022-10-21T22:16:37.912Z,11.20
2022-10-21T22:19:06.486Z,6.10
2022-10-21T22:21:34.815Z,8.88
2022-10-21T22:24:03.338Z,6.90
2022-10-21T22:26:32.964Z,9.07
2022-10-21T22:29:01.466Z,6.25
2022-10-21T22:31:30.827Z,10.32
2022-10-21T22:34:01.252Z,4.97
2022-10-21T22:36:30.009Z,6.05
2022-10-21T22:38:58.880Z,7.82
2022-10-21T22:41:27.847Z,16.95
2022-10-21T22:43:57.395Z,8.38
2022-10-21T22:46:40.947Z,7.63
2022-10-21T22:49:10.655Z,10.73
2022-10-21T22:51:39.215Z,8.85
2022-10-21T22:54:19.256Z,6.72
2022-10-21T22:56:52.832Z,7.55
2022-10-21T22:59:22.569Z,7.82
2022-10-21T23:01:50.809Z,3.22
2022-10-21T23:04:19.050Z,3.85
2022-10-21T23:06:47.313Z,5.20
2022-10-21T23:09:15.868Z,3.65
2022-10-21T23:11:44.238Z,9.75
2022-10-21T23:14:12.732Z,5.20
2022-10-21T23:16:42.367Z,7.38
2022-10-21T23:21:42.288Z,3.63
2022-10-21T23:24:11.096Z,7.70
2022-10-21T23:26:39.365Z,5.13
2022-10-21T23:29:07.927Z,7.57
2022-10-21T23:31:36.210Z,8.05
2022-10-21T23:34:06.096Z,7.32
2022-10-21T23:36:35.441Z,6.88
2022-10-21T23:39:04.511Z,3.58
2022-10-21T23:41:32.723Z,6.95
2022-10-21T23:44:01.404Z,3.70
2022-10-21T23:46:30.043Z,10.30
2022-10-21T23:48:58.551Z,6.45
2022-10-21T23:51:28.187Z,8.27
2022-10-21T23:53:56.891Z,10.32
2022-10-21T23:56:25.085Z,4.50
2022-10-21T23:58:53.559Z,6.82
